This is the latest recevied weather packets stored in our database for station/object F5SHD-10. If no packets are shown the sender has not sent any weather packets the latest 10 day(s).
| Time | Temp. | Humidity | Pressure | Rain* | Wind** | Luminosity | Snow |
|---|---|---|---|---|---|---|---|
| 1778252897 | 22.22° C | 51% | 1011.5 hPa | - | - | - | - |
| 1778251997 | 22.22° C | 51% | 1011.7 hPa | - | - | - | - |
| 1778251097 | 21.67° C | 51% | 1011.7 hPa | - | - | - | - |
| 1778250197 | 21.67° C | 51% | 1011.8 hPa | - | - | - | - |
| 1778249297 | 21.67° C | 51% | 1011.9 hPa | - | - | - | - |
| 1778248397 | 21.67° C | 52% | 1011.9 hPa | - | - | - | - |
| 1778247497 | 21.67° C | 52% | 1012 hPa | - | - | - | - |
| 1778246597 | 18.33° C | 62% | 1012 hPa | - | - | - | - |
| 1778179442 | 20.56° C | 52% | 1012.3 hPa | - | - | - | - |
| 1778179104 | 20.56° C | 52% | 1012.3 hPa | - | - | - | - |
| 1778178204 | 20.56° C | 52% | 1012.3 hPa | - | - | - | - |
| 1778177304 | 20.56° C | 52% | 1012.1 hPa | - | - | - | - |
| 1778176404 | 20.56° C | 52% | 1012.2 hPa | - | - | - | - |
| 1778175504 | 20.56° C | 52% | 1012.1 hPa | - | - | - | - |
| 1778174604 | 20.56° C | 53% | 1012.1 hPa | - | - | - | - |
| 1778173703 | 20.56° C | 53% | 1012.1 hPa | - | - | - | - |
| 1778172803 | 20° C | 53% | 1012.3 hPa | - | - | - | - |
| 1778171903 | 20° C | 52% | 1012.2 hPa | - | - | - | - |
| 1778171003 | 20° C | 52% | 1012.1 hPa | - | - | - | - |
| 1778170103 | 20° C | 52% | 1012 hPa | - | - | - | - |
| 1778169203 | 20° C | 53% | 1011.9 hPa | - | - | - | - |
| 1778168302 | 16.67° C | 63% | 1012 hPa | - | - | - | - |
| 1778094520 | 18.33° C | 57% | 1015.1 hPa | - | - | - | - |
| 1778093620 | 18.33° C | 56% | 1015 hPa | - | - | - | - |
| 1778092720 | 18.89° C | 55% | 1014.9 hPa | - | - | - | - |
* Rain since midnight (hover to see other rain measurements)
** Current wind speed in m/s (hover to see current wind gust speed)